createdAt,value
2023-10-11T00:01:21.531Z,100.00
2023-10-11T00:03:54.729Z,100.00
2023-10-11T00:06:25.874Z,100.00
2023-10-11T00:08:54.200Z,100.00
2023-10-11T00:11:31.613Z,100.00
2023-10-11T00:13:59.827Z,100.00
2023-10-11T00:16:32.995Z,100.00
2023-10-11T00:19:01.370Z,100.00
2023-10-11T00:21:42.696Z,100.00
2023-10-11T00:24:11.278Z,100.00
2023-10-11T00:26:41.574Z,100.00
2023-10-11T00:29:13.095Z,100.00
2023-10-11T00:31:41.430Z,100.00
2023-10-11T00:34:12.114Z,100.00
2023-10-11T00:36:46.463Z,100.00
2023-10-11T00:39:19.133Z,100.00
2023-10-11T00:41:50.632Z,100.00
2023-10-11T00:44:21.717Z,100.00
2023-10-11T00:46:58.903Z,100.00
2023-10-11T00:49:36.059Z,100.00
2023-10-11T00:52:08.198Z,100.00
2023-10-11T00:54:36.707Z,100.00
2023-10-11T00:57:05.924Z,100.00
2023-10-11T00:59:34.139Z,100.00
2023-10-11T01:02:02.239Z,100.00
2023-10-11T01:04:36.289Z,100.00
2023-10-11T01:07:09.441Z,100.00
2023-10-11T01:09:39.202Z,100.00
2023-10-11T01:12:07.802Z,100.00
2023-10-11T01:14:46.760Z,100.00
2023-10-11T01:17:15.964Z,100.00
2023-10-11T01:19:44.038Z,100.00
2023-10-11T01:22:13.440Z,100.00
2023-10-11T01:24:42.803Z,100.00
2023-10-11T01:27:14.872Z,100.00
2023-10-11T01:29:43.318Z,100.00
2023-10-11T01:32:11.803Z,100.00
2023-10-11T01:34:39.891Z,100.00
2023-10-11T01:37:08.600Z,100.00
2023-10-11T01:39:38.550Z,100.00
2023-10-11T01:42:06.903Z,100.00
2023-10-11T01:44:37.675Z,100.00
2023-10-11T01:47:06.601Z,100.00
2023-10-11T01:49:40.539Z,100.00
2023-10-11T01:52:09.350Z,100.00
2023-10-11T01:54:38.885Z,100.00
2023-10-11T01:57:06.980Z,100.00
2023-10-11T01:59:35.931Z,100.00
2023-10-11T02:02:04.949Z,100.00
2023-10-11T02:04:33.203Z,100.00
2023-10-11T02:07:01.347Z,100.00
2023-10-11T02:09:29.489Z,100.00
2023-10-11T02:11:59.660Z,100.00
2023-10-11T02:14:29.570Z,100.00
2023-10-11T02:16:58.764Z,100.00
2023-10-11T02:19:27.090Z,100.00
2023-10-11T02:21:56.423Z,100.00
2023-10-11T02:24:27.823Z,100.00
2023-10-11T02:26:58.097Z,100.00
2023-10-11T02:29:29.106Z,100.00
2023-10-11T02:31:59.757Z,100.00
2023-10-11T02:34:28.945Z,100.00
2023-10-11T02:36:59.439Z,100.00
2023-10-11T02:39:33.673Z,100.00
2023-10-11T02:42:03.240Z,100.00
2023-10-11T02:44:32.841Z,100.00
2023-10-11T02:47:01.184Z,100.00
2023-10-11T02:49:33.525Z,100.00
2023-10-11T02:52:07.728Z,100.00
2023-10-11T02:54:40.011Z,100.00
2023-10-11T02:57:10.025Z,100.00
2023-10-11T02:59:45.812Z,100.00
2023-10-11T03:02:16.645Z,100.00
2023-10-11T03:04:45.630Z,100.00
2023-10-11T03:07:22.835Z,100.00
2023-10-11T03:09:51.572Z,100.00
2023-10-11T03:12:21.005Z,100.00
2023-10-11T03:14:56.302Z,100.00
2023-10-11T03:17:25.042Z,100.00
2023-10-11T03:19:54.129Z,100.00
2023-10-11T03:22:22.571Z,100.00
2023-10-11T03:24:55.371Z,100.00
2023-10-11T03:27:25.021Z,100.00
2023-10-11T03:29:56.620Z,100.00
2023-10-11T03:32:28.349Z,100.00
2023-10-11T03:34:57.068Z,100.00
2023-10-11T03:37:29.608Z,100.00
2023-10-11T03:39:58.572Z,100.00
2023-10-11T03:42:51.615Z,100.00
2023-10-11T03:45:28.937Z,100.00
2023-10-11T03:47:59.390Z,100.00
2023-10-11T03:50:35.026Z,100.00
2023-10-11T03:53:12.389Z,100.00
2023-10-11T03:55:47.267Z,100.00
2023-10-11T03:58:30.964Z,100.00
2023-10-11T04:01:07.127Z,100.00
2023-10-11T04:03:35.899Z,100.00
2023-10-11T04:06:15.102Z,100.00
2023-10-11T04:08:45.433Z,100.00
2023-10-11T04:11:19.984Z,100.00
2023-10-11T04:13:50.652Z,100.00
2023-10-11T04:16:20.694Z,100.00
2023-10-11T04:18:53.512Z,100.00
2023-10-11T04:21:45.512Z,100.00
2023-10-11T04:24:21.880Z,100.00
2023-10-11T04:26:55.206Z,100.00
2023-10-11T04:29:24.945Z,100.00
2023-10-11T04:32:15.432Z,100.00
2023-10-11T04:34:56.962Z,100.00
2023-10-11T04:37:35.278Z,100.00
2023-10-11T04:40:23.419Z,100.00
2023-10-11T04:43:06.735Z,100.00
2023-10-11T04:45:55.914Z,100.00
2023-10-11T04:48:35.028Z,100.00
2023-10-11T04:51:23.837Z,100.00
2023-10-11T04:53:58.365Z,100.00
2023-10-11T04:56:45.842Z,100.00
2023-10-11T04:59:19.199Z,100.00
2023-10-11T05:02:00.077Z,100.00
2023-10-11T05:04:33.861Z,100.00
2023-10-11T05:07:09.312Z,100.00
2023-10-11T05:09:41.707Z,100.00
2023-10-11T05:12:14.142Z,100.00
2023-10-11T05:14:58.286Z,100.00
2023-10-11T05:17:40.471Z,100.00
2023-10-11T05:20:45.534Z,100.00
2023-10-11T05:23:15.437Z,100.00
2023-10-11T05:25:57.847Z,100.00
2023-10-11T05:28:31.751Z,100.00
2023-10-11T05:31:21.134Z,100.00
2023-10-11T05:34:06.988Z,100.00
2023-10-11T05:36:42.022Z,100.00
2023-10-11T05:39:27.617Z,100.00
2023-10-11T05:42:14.411Z,100.00
2023-10-11T05:45:00.513Z,100.00
2023-10-11T05:47:46.180Z,100.00
2023-10-11T05:50:31.679Z,100.00
2023-10-11T05:53:01.256Z,100.00
2023-10-11T05:55:29.986Z,100.00
2023-10-11T05:58:03.421Z,100.00
2023-10-11T06:00:35.739Z,100.00
2023-10-11T06:03:04.627Z,100.00
2023-10-11T06:05:41.135Z,100.00
2023-10-11T06:08:17.379Z,100.00
2023-10-11T06:10:46.075Z,100.00
2023-10-11T06:13:15.905Z,100.00
2023-10-11T06:16:00.344Z,100.00
2023-10-11T06:18:40.750Z,100.00
2023-10-11T06:21:20.369Z,100.00
2023-10-11T06:23:53.057Z,100.00
2023-10-11T06:26:38.685Z,100.00
2023-10-11T06:29:08.810Z,100.00
2023-10-11T06:31:41.615Z,100.00
2023-10-11T06:34:18.608Z,100.00
2023-10-11T06:36:50.211Z,100.00
2023-10-11T06:39:56.449Z,100.00
2023-10-11T06:42:24.940Z,100.00
2023-10-11T06:44:59.550Z,100.00
2023-10-11T06:47:35.607Z,100.00
2023-10-11T06:50:12.066Z,100.00
2023-10-11T06:52:45.164Z,100.00
2023-10-11T06:55:18.456Z,100.00
2023-10-11T06:57:52.170Z,100.00
2023-10-11T07:00:26.150Z,100.00
2023-10-11T07:03:09.308Z,100.00
2023-10-11T07:05:43.209Z,100.00
2023-10-11T07:08:12.324Z,100.00
2023-10-11T07:10:47.587Z,100.00
2023-10-11T07:13:16.856Z,100.00
2023-10-11T07:15:46.862Z,100.00
2023-10-11T07:18:23.434Z,100.00
2023-10-11T07:20:59.937Z,100.00
2023-10-11T07:23:36.966Z,100.00
2023-10-11T07:26:24.190Z,100.00
2023-10-11T07:28:53.977Z,100.00
2023-10-11T07:31:22.757Z,100.00
2023-10-11T07:33:56.901Z,100.00
2023-10-11T07:36:29.700Z,100.00
2023-10-11T07:38:58.179Z,100.00
2023-10-11T07:41:30.259Z,100.00
2023-10-11T07:43:59.177Z,100.00
2023-10-11T07:46:29.611Z,100.00
2023-10-11T07:49:03.247Z,100.00
2023-10-11T07:51:31.764Z,100.00
2023-10-11T07:54:04.254Z,100.00
2023-10-11T07:56:37.120Z,100.00
2023-10-11T07:59:09.363Z,100.00
2023-10-11T08:01:44.115Z,100.00
2023-10-11T08:04:14.039Z,100.00
2023-10-11T08:06:42.608Z,100.00
2023-10-11T08:09:20.006Z,100.00
2023-10-11T08:11:54.515Z,100.00
2023-10-11T08:14:24.799Z,100.00
2023-10-11T08:16:53.232Z,100.00
2023-10-11T08:19:21.423Z,100.00
2023-10-11T08:21:56.059Z,100.00
2023-10-11T08:24:27.058Z,100.00
2023-10-11T08:27:08.902Z,100.00
2023-10-11T08:29:43.611Z,100.00
2023-10-11T08:32:18.342Z,100.00
2023-10-11T08:34:52.800Z,100.00
2023-10-11T08:37:22.069Z,100.00
2023-10-11T08:39:55.646Z,100.00
2023-10-11T08:42:32.208Z,100.00
2023-10-11T08:45:01.833Z,100.00
2023-10-11T08:47:31.279Z,100.00
2023-10-11T08:50:00.717Z,100.00
2023-10-11T08:52:29.769Z,100.00
2023-10-11T08:55:00.282Z,100.00
2023-10-11T08:57:33.415Z,100.00
2023-10-11T09:00:19.048Z,100.00
2023-10-11T09:02:49.821Z,100.00
2023-10-11T09:05:32.487Z,100.00
2023-10-11T09:08:03.516Z,100.00
2023-10-11T09:10:35.187Z,100.00
2023-10-11T09:13:10.224Z,100.00
2023-10-11T09:15:42.130Z,100.00
2023-10-11T09:18:17.620Z,100.00
2023-10-11T09:20:57.180Z,100.00
2023-10-11T09:23:37.208Z,100.00
2023-10-11T09:26:06.767Z,100.00
2023-10-11T09:28:42.409Z,100.00
2023-10-11T09:31:13.491Z,100.00
2023-10-11T09:33:43.323Z,100.00
2023-10-11T09:36:13.739Z,100.00
2023-10-11T09:38:42.448Z,100.00
2023-10-11T09:41:16.612Z,100.00
2023-10-11T09:43:49.740Z,100.00
2023-10-11T09:46:19.813Z,100.00
2023-10-11T09:48:52.417Z,100.00
2023-10-11T09:51:21.821Z,100.00
2023-10-11T09:53:52.202Z,97.55
2023-10-11T09:56:38.765Z,94.04
2023-10-11T09:59:32.595Z,88.33
2023-10-11T10:02:08.063Z,91.80
2023-10-11T10:04:59.075Z,85.41
2023-10-11T10:07:41.126Z,81.57
2023-10-11T10:10:12.222Z,84.84
2023-10-11T10:12:44.449Z,80.22
2023-10-11T10:15:22.144Z,77.14
2023-10-11T10:18:19.128Z,77.42
2023-10-11T10:20:48.391Z,79.19
2023-10-11T10:23:33.871Z,76.88
2023-10-11T10:26:42.805Z,73.55
2023-10-11T10:29:13.566Z,76.54
2023-10-11T10:32:07.852Z,76.57
2023-10-11T10:34:36.164Z,76.05
2023-10-11T10:37:10.752Z,75.02
2023-10-11T10:40:14.901Z,73.18
2023-10-11T10:42:48.572Z,73.57
2023-10-11T10:45:27.868Z,70.00
2023-10-11T10:48:15.370Z,66.80
2023-10-11T10:50:57.577Z,66.84
2023-10-11T10:53:26.325Z,66.23
2023-10-11T10:55:59.255Z,66.88
2023-10-11T10:58:28.935Z,64.92
2023-10-11T11:01:00.959Z,64.37
2023-10-11T11:03:37.699Z,64.32
2023-10-11T11:06:05.316Z,65.37
2023-10-11T11:08:40.615Z,63.42
2023-10-11T11:11:26.745Z,62.60
2023-10-11T11:13:58.130Z,62.56
2023-10-11T11:16:27.647Z,65.63
2023-10-11T11:19:02.148Z,66.30
2023-10-11T11:21:31.851Z,69.45
2023-10-11T11:24:19.469Z,70.81
2023-10-11T11:26:48.976Z,73.37
2023-10-11T11:29:32.811Z,74.01
2023-10-11T11:32:15.676Z,76.74
2023-10-11T11:35:03.924Z,77.43
2023-10-11T11:37:32.777Z,77.97
2023-10-11T11:40:15.829Z,78.83
2023-10-11T11:42:48.808Z,79.56
2023-10-11T11:45:16.886Z,79.83
2023-10-11T11:47:57.506Z,73.58
2023-10-11T11:50:27.986Z,71.51
2023-10-11T11:52:58.832Z,66.74
2023-10-11T11:55:26.166Z,64.44
2023-10-11T11:57:54.743Z,63.36
2023-10-11T12:00:39.486Z,62.14
2023-10-11T12:03:10.170Z,59.61
2023-10-11T12:05:42.616Z,57.71
2023-10-11T12:08:20.300Z,56.97
2023-10-11T12:10:51.908Z,55.45
2023-10-11T12:13:27.533Z,55.75
2023-10-11T12:15:57.762Z,57.37
2023-10-11T12:18:33.699Z,56.39
2023-10-11T12:21:12.459Z,55.04
2023-10-11T12:23:48.140Z,54.91
2023-10-11T12:26:18.914Z,55.94
2023-10-11T12:28:47.278Z,53.78
2023-10-11T12:31:15.779Z,54.81
2023-10-11T12:33:47.105Z,55.51
2023-10-11T12:36:21.750Z,55.61
2023-10-11T12:38:50.723Z,54.23
2023-10-11T12:41:19.615Z,53.66
2023-10-11T12:43:47.789Z,53.05
2023-10-11T12:46:20.386Z,51.60
2023-10-11T12:48:57.000Z,51.88
2023-10-11T12:51:30.941Z,51.00
2023-10-11T12:53:59.326Z,50.54
2023-10-11T12:56:27.824Z,51.48
2023-10-11T12:58:57.292Z,51.26
2023-10-11T13:01:38.352Z,52.29
2023-10-11T13:04:19.743Z,51.62
2023-10-11T13:06:51.845Z,51.37
2023-10-11T13:09:24.267Z,49.93
2023-10-11T13:11:58.078Z,51.25
2023-10-11T13:14:28.436Z,51.69
2023-10-11T13:16:59.948Z,50.92
2023-10-11T13:19:28.985Z,51.61
2023-10-11T13:21:59.021Z,50.98
2023-10-11T13:24:28.407Z,51.90
2023-10-11T13:26:57.686Z,51.37
2023-10-11T13:29:27.157Z,51.31
2023-10-11T13:31:58.051Z,52.33
2023-10-11T13:34:32.294Z,51.82
2023-10-11T13:37:02.338Z,51.63
2023-10-11T13:39:39.763Z,50.57
2023-10-11T13:42:11.070Z,51.45
2023-10-11T13:44:39.674Z,50.28
2023-10-11T13:47:08.116Z,50.62
2023-10-11T13:49:38.423Z,50.36
2023-10-11T13:52:08.912Z,50.44
2023-10-11T13:54:43.794Z,51.19
2023-10-11T13:57:17.054Z,52.69
2023-10-11T13:59:48.745Z,51.91
2023-10-11T14:02:35.107Z,51.04
2023-10-11T14:05:16.975Z,51.29
2023-10-11T14:07:52.413Z,50.91
2023-10-11T14:10:25.125Z,51.14
2023-10-11T14:12:53.593Z,50.84
2023-10-11T14:15:23.832Z,51.60
2023-10-11T14:17:52.660Z,51.07
2023-10-11T14:20:25.415Z,50.76
2023-10-11T14:22:55.930Z,50.51
2023-10-11T14:25:25.811Z,51.33
2023-10-11T14:27:54.583Z,50.99
2023-10-11T14:30:23.416Z,51.14
2023-10-11T14:32:51.946Z,50.65
2023-10-11T14:35:22.391Z,50.83
2023-10-11T14:37:50.572Z,50.65
2023-10-11T14:40:24.835Z,51.39
2023-10-11T14:42:53.116Z,50.66
2023-10-11T14:45:23.378Z,51.89
2023-10-11T14:47:54.252Z,51.80
2023-10-11T14:50:24.674Z,51.88
2023-10-11T14:52:53.383Z,52.02
2023-10-11T14:55:25.392Z,52.85
2023-10-11T14:57:54.079Z,53.60
2023-10-11T15:00:24.286Z,54.00
2023-10-11T15:02:53.806Z,54.79
2023-10-11T15:05:22.915Z,54.98
2023-10-11T15:07:53.223Z,55.15
2023-10-11T15:10:25.175Z,54.99
2023-10-11T15:12:56.666Z,55.39
2023-10-11T15:15:28.458Z,56.52
2023-10-11T15:18:02.649Z,57.90
2023-10-11T15:20:33.768Z,58.85
2023-10-11T15:23:03.280Z,59.31
2023-10-11T15:25:33.418Z,60.64
2023-10-11T15:28:02.602Z,62.06
2023-10-11T15:30:31.126Z,61.84
2023-10-11T15:32:59.546Z,63.08
2023-10-11T15:35:28.088Z,64.78
2023-10-11T15:37:56.592Z,66.34
2023-10-11T15:40:28.580Z,71.20
2023-10-11T15:42:59.227Z,70.88
2023-10-11T15:45:27.820Z,73.22
2023-10-11T15:47:56.502Z,76.45
2023-10-11T15:50:24.602Z,79.33
2023-10-11T15:52:54.411Z,83.52
2023-10-11T15:55:24.099Z,84.40
2023-10-11T15:57:52.359Z,87.96
2023-10-11T16:00:22.457Z,88.38
2023-10-11T16:02:53.497Z,89.59
2023-10-11T16:05:23.899Z,92.49
2023-10-11T16:07:56.349Z,96.09
2023-10-11T16:10:30.682Z,97.12
2023-10-11T16:13:06.375Z,99.32
2023-10-11T16:15:42.282Z,100.00
2023-10-11T16:18:11.206Z,100.00
2023-10-11T16:20:43.612Z,100.00
2023-10-11T16:23:12.396Z,100.00
2023-10-11T16:25:47.260Z,100.00
2023-10-11T16:28:17.506Z,100.00
2023-10-11T16:30:58.652Z,100.00
2023-10-11T16:33:30.845Z,100.00
2023-10-11T16:36:07.224Z,100.00
2023-10-11T16:38:37.518Z,100.00
2023-10-11T16:41:10.253Z,100.00
2023-10-11T16:43:45.467Z,100.00
2023-10-11T16:46:30.555Z,100.00
2023-10-11T16:49:05.042Z,100.00
2023-10-11T16:51:37.396Z,100.00
2023-10-11T16:54:08.213Z,100.00
2023-10-11T16:56:44.171Z,100.00
2023-10-11T16:59:14.421Z,100.00
2023-10-11T17:01:53.225Z,100.00
2023-10-11T17:04:22.273Z,100.00
2023-10-11T17:07:01.457Z,100.00
2023-10-11T17:09:36.693Z,100.00
2023-10-11T17:12:15.469Z,100.00
2023-10-11T17:14:45.141Z,100.00
2023-10-11T17:17:16.928Z,100.00
2023-10-11T17:19:45.609Z,100.00
2023-10-11T17:22:20.895Z,100.00
2023-10-11T17:24:49.838Z,100.00
2023-10-11T17:27:19.506Z,100.00
2023-10-11T17:29:48.720Z,100.00
2023-10-11T17:32:18.418Z,100.00
2023-10-11T17:34:46.447Z,100.00
2023-10-11T17:37:16.467Z,100.00
2023-10-11T17:39:44.655Z,100.00
2023-10-11T17:42:14.176Z,100.00
2023-10-11T17:44:45.950Z,100.00
2023-10-11T17:47:14.383Z,100.00
2023-10-11T17:49:44.149Z,100.00
2023-10-11T17:52:12.849Z,100.00
2023-10-11T17:54:43.138Z,100.00
2023-10-11T17:57:12.419Z,100.00
2023-10-11T17:59:40.764Z,100.00
2023-10-11T18:02:10.168Z,100.00
2023-10-11T18:04:38.561Z,100.00
2023-10-11T18:07:08.202Z,100.00
2023-10-11T18:09:36.392Z,100.00
2023-10-11T18:12:06.070Z,100.00
2023-10-11T18:14:34.603Z,100.00
2023-10-11T18:17:02.822Z,100.00
2023-10-11T18:19:31.662Z,100.00
2023-10-11T18:22:01.476Z,100.00
2023-10-11T18:24:31.235Z,100.00
2023-10-11T18:27:01.495Z,100.00
2023-10-11T18:29:29.909Z,100.00
2023-10-11T18:31:58.049Z,100.00
2023-10-11T18:34:26.986Z,100.00
2023-10-11T18:36:55.077Z,100.00
2023-10-11T18:39:24.038Z,100.00
2023-10-11T18:41:53.677Z,100.00
2023-10-11T18:44:21.896Z,100.00
2023-10-11T18:46:50.393Z,100.00
2023-10-11T18:49:18.593Z,100.00
2023-10-11T18:51:46.727Z,100.00
2023-10-11T18:54:16.541Z,100.00
2023-10-11T18:56:44.811Z,100.00
2023-10-11T18:59:14.451Z,100.00
2023-10-11T19:01:42.807Z,100.00
2023-10-11T19:04:13.284Z,100.00
2023-10-11T19:06:41.566Z,100.00
2023-10-11T19:09:10.393Z,100.00
2023-10-11T19:11:38.857Z,100.00
2023-10-11T19:14:07.076Z,100.00
2023-10-11T19:16:36.640Z,100.00
2023-10-11T19:19:04.913Z,100.00
2023-10-11T19:21:33.002Z,100.00
2023-10-11T19:24:05.060Z,100.00
2023-10-11T19:26:33.173Z,100.00
2023-10-11T19:29:01.561Z,100.00
2023-10-11T19:31:29.832Z,100.00
2023-10-11T19:34:01.884Z,100.00
2023-10-11T19:36:32.687Z,100.00
2023-10-11T19:39:03.482Z,100.00
2023-10-11T19:41:31.496Z,100.00
2023-10-11T19:44:00.099Z,100.00
2023-10-11T19:46:28.329Z,100.00
2023-10-11T19:48:59.564Z,100.00
2023-10-11T19:51:29.149Z,100.00
2023-10-11T19:53:57.469Z,100.00
2023-10-11T19:56:26.261Z,100.00
2023-10-11T19:58:54.412Z,100.00
2023-10-11T20:01:24.668Z,100.00
2023-10-11T20:03:55.272Z,100.00
2023-10-11T20:06:24.081Z,100.00
2023-10-11T20:08:55.442Z,100.00
2023-10-11T20:11:24.463Z,100.00
2023-10-11T20:13:52.685Z,100.00
2023-10-11T20:16:20.934Z,100.00
2023-10-11T20:18:51.104Z,100.00
2023-10-11T20:21:20.904Z,100.00
2023-10-11T20:23:50.064Z,100.00
2023-10-11T20:26:21.542Z,100.00
2023-10-11T20:28:50.620Z,100.00
2023-10-11T20:31:19.204Z,100.00
2023-10-11T20:33:49.197Z,100.00
2023-10-11T20:36:17.497Z,100.00
2023-10-11T20:38:45.616Z,100.00
2023-10-11T20:41:14.383Z,100.00
2023-10-11T20:43:43.886Z,100.00
2023-10-11T20:46:13.097Z,100.00
2023-10-11T20:48:43.325Z,100.00
2023-10-11T20:51:12.625Z,100.00
2023-10-11T20:53:41.034Z,100.00
2023-10-11T20:56:14.030Z,100.00
2023-10-11T20:58:56.386Z,100.00
2023-10-11T21:01:27.236Z,100.00
2023-10-11T21:03:56.917Z,100.00
2023-10-11T21:06:25.285Z,100.00
2023-10-11T21:08:53.514Z,100.00
2023-10-11T21:11:22.290Z,100.00
2023-10-11T21:13:51.826Z,100.00
2023-10-11T21:16:19.887Z,100.00
2023-10-11T21:18:49.985Z,100.00
2023-10-11T21:21:18.942Z,100.00
2023-10-11T21:23:47.629Z,100.00
2023-10-11T21:26:17.349Z,100.00
2023-10-11T21:28:53.511Z,100.00
2023-10-11T21:31:25.075Z,100.00
2023-10-11T21:33:53.541Z,100.00
2023-10-11T21:36:22.171Z,100.00
2023-10-11T21:38:50.381Z,100.00
2023-10-11T21:41:22.219Z,100.00
2023-10-11T21:43:52.778Z,100.00
2023-10-11T21:46:21.308Z,100.00
2023-10-11T21:48:51.718Z,100.00
2023-10-11T21:51:20.513Z,100.00
2023-10-11T21:53:48.682Z,100.00
2023-10-11T21:56:17.257Z,100.00
2023-10-11T21:58:48.066Z,100.00
2023-10-11T22:01:26.139Z,100.00
2023-10-11T22:03:58.395Z,100.00
2023-10-11T22:06:26.880Z,100.00
2023-10-11T22:08:56.551Z,100.00
2023-10-11T22:11:26.740Z,100.00
2023-10-11T22:13:57.689Z,100.00
2023-10-11T22:16:26.221Z,100.00
2023-10-11T22:19:00.021Z,100.00
2023-10-11T22:21:28.467Z,100.00
2023-10-11T22:23:56.554Z,100.00
2023-10-11T22:26:28.472Z,100.00
2023-10-11T22:28:56.555Z,100.00
2023-10-11T22:31:25.262Z,100.00
2023-10-11T22:33:55.883Z,100.00
2023-10-11T22:36:28.123Z,100.00
2023-10-11T22:38:56.542Z,100.00
2023-10-11T22:41:25.185Z,100.00
2023-10-11T22:43:53.189Z,100.00
2023-10-11T22:46:24.003Z,100.00
2023-10-11T22:48:53.074Z,100.00
2023-10-11T22:51:26.117Z,100.00
2023-10-11T22:54:01.634Z,100.00
2023-10-11T22:56:31.864Z,100.00
2023-10-11T22:59:04.605Z,100.00
2023-10-11T23:01:33.579Z,100.00
2023-10-11T23:04:01.934Z,100.00
2023-10-11T23:06:31.867Z,100.00
2023-10-11T23:09:01.559Z,100.00
2023-10-11T23:11:30.548Z,100.00
2023-10-11T23:13:59.028Z,100.00
2023-10-11T23:16:29.049Z,100.00
2023-10-11T23:19:20.202Z,100.00
2023-10-11T23:21:49.480Z,100.00
2023-10-11T23:24:20.384Z,100.00
2023-10-11T23:26:54.254Z,100.00
2023-10-11T23:29:23.282Z,100.00
2023-10-11T23:31:52.667Z,100.00
2023-10-11T23:34:26.199Z,100.00
2023-10-11T23:36:56.992Z,100.00
2023-10-11T23:39:35.245Z,100.00
2023-10-11T23:42:16.102Z,100.00
2023-10-11T23:44:46.945Z,100.00
2023-10-11T23:47:28.915Z,100.00
2023-10-11T23:49:57.437Z,100.00
2023-10-11T23:52:29.483Z,100.00
2023-10-11T23:55:07.385Z,100.00
2023-10-11T23:57:37.768Z,100.00
